sensor_id;sensor_type;location;lat;lon;timestamp;pressure;altitude;pressure_sealevel;temperature;humidity
12209;BME280;6167;43.080;25.634;2022-07-22T00:01:53;99341.91;;;23.81;100.00
12209;BME280;6167;43.080;25.634;2022-07-22T00:04:20;99341.63;;;23.67;100.00
12209;BME280;6167;43.080;25.634;2022-07-22T00:06:46;99327.13;;;23.68;100.00
12209;BME280;6167;43.080;25.634;2022-07-22T00:09:14;99334.22;;;23.51;100.00
12209;BME280;6167;43.080;25.634;2022-07-22T00:11:41;99340.09;;;23.64;100.00
12209;BME280;6167;43.080;25.634;2022-07-22T00:14:09;99342.09;;;23.62;100.00
12209;BME280;6167;43.080;25.634;2022-07-22T00:16:38;99336.53;;;23.46;100.00
12209;BME280;6167;43.080;25.634;2022-07-22T00:19:05;99348.50;;;23.61;100.00
12209;BME280;6167;43.080;25.634;2022-07-22T00:21:32;99337.69;;;23.61;100.00
12209;BME280;6167;43.080;25.634;2022-07-22T00:23:59;99341.50;;;23.76;100.00
12209;BME280;6167;43.080;25.634;2022-07-22T00:26:26;99349.75;;;23.75;100.00
12209;BME280;6167;43.080;25.634;2022-07-22T00:28:53;99346.38;;;23.73;100.00
12209;BME280;6167;43.080;25.634;2022-07-22T00:31:22;99351.31;;;23.77;100.00
12209;BME280;6167;43.080;25.634;2022-07-22T00:33:49;99360.47;;;23.84;100.00
12209;BME280;6167;43.080;25.634;2022-07-22T00:36:16;99353.47;;;23.74;100.00
12209;BME280;6167;43.080;25.634;2022-07-22T00:38:44;99356.28;;;23.64;100.00
12209;BME280;6167;43.080;25.634;2022-07-22T00:41:11;99356.47;;;23.71;100.00
12209;BME280;6167;43.080;25.634;2022-07-22T00:43:52;99354.75;;;23.61;100.00
12209;BME280;6167;43.080;25.634;2022-07-22T00:46:20;99353.44;;;23.66;100.00
12209;BME280;6167;43.080;25.634;2022-07-22T00:48:48;99357.28;;;23.45;100.00
12209;BME280;6167;43.080;25.634;2022-07-22T00:51:16;99347.81;;;23.41;100.00
12209;BME280;6167;43.080;25.634;2022-07-22T00:53:44;99359.66;;;23.48;100.00
12209;BME280;6167;43.080;25.634;2022-07-22T00:56:11;99367.44;;;23.51;100.00
12209;BME280;6167;43.080;25.634;2022-07-22T00:58:40;99361.19;;;23.51;100.00
12209;BME280;6167;43.080;25.634;2022-07-22T01:01:07;99375.94;;;23.21;100.00
12209;BME280;6167;43.080;25.634;2022-07-22T01:03:35;99369.44;;;23.14;100.00
12209;BME280;6167;43.080;25.634;2022-07-22T01:06:04;99370.84;;;23.18;100.00
12209;BME280;6167;43.080;25.634;2022-07-22T01:08:32;99379.63;;;23.20;100.00
12209;BME280;6167;43.080;25.634;2022-07-22T01:11:07;99374.69;;;23.15;100.00
12209;BME280;6167;43.080;25.634;2022-07-22T01:13:34;99377.78;;;23.03;100.00
12209;BME280;6167;43.080;25.634;2022-07-22T01:16:02;99379.16;;;23.07;100.00
12209;BME280;6167;43.080;25.634;2022-07-22T01:18:31;99378.09;;;23.17;100.00
12209;BME280;6167;43.080;25.634;2022-07-22T01:21:00;99378.94;;;23.18;100.00
12209;BME280;6167;43.080;25.634;2022-07-22T01:23:27;99384.31;;;23.18;100.00
12209;BME280;6167;43.080;25.634;2022-07-22T01:25:54;99376.09;;;23.19;100.00
12209;BME280;6167;43.080;25.634;2022-07-22T01:28:22;99389.56;;;23.19;100.00
12209;BME280;6167;43.080;25.634;2022-07-22T01:30:49;99381.31;;;23.21;100.00
12209;BME280;6167;43.080;25.634;2022-07-22T01:33:16;99384.19;;;23.19;100.00
12209;BME280;6167;43.080;25.634;2022-07-22T01:35:44;99387.19;;;23.16;100.00
12209;BME280;6167;43.080;25.634;2022-07-22T01:38:13;99390.38;;;22.84;100.00
12209;BME280;6167;43.080;25.634;2022-07-22T01:40:41;99386.50;;;22.59;100.00
12209;BME280;6167;43.080;25.634;2022-07-22T01:43:09;99379.34;;;22.78;100.00
12209;BME280;6167;43.080;25.634;2022-07-22T01:45:37;99382.97;;;22.86;100.00
12209;BME280;6167;43.080;25.634;2022-07-22T01:48:04;99372.38;;;22.85;100.00
12209;BME280;6167;43.080;25.634;2022-07-22T01:50:31;99380.50;;;22.66;100.00
12209;BME280;6167;43.080;25.634;2022-07-22T01:52:58;99373.56;;;22.36;100.00
12209;BME280;6167;43.080;25.634;2022-07-22T01:55:27;99381.28;;;22.48;100.00
12209;BME280;6167;43.080;25.634;2022-07-22T01:57:54;99381.22;;;22.40;100.00
12209;BME280;6167;43.080;25.634;2022-07-22T02:00:21;99382.66;;;22.25;100.00
12209;BME280;6167;43.080;25.634;2022-07-22T02:02:48;99374.16;;;22.29;100.00
12209;BME280;6167;43.080;25.634;2022-07-22T02:05:15;99384.13;;;22.19;100.00
12209;BME280;6167;43.080;25.634;2022-07-22T02:07:42;99381.66;;;22.26;100.00
12209;BME280;6167;43.080;25.634;2022-07-22T02:10:09;99375.44;;;22.25;100.00
12209;BME280;6167;43.080;25.634;2022-07-22T02:12:38;99385.34;;;22.25;100.00
12209;BME280;6167;43.080;25.634;2022-07-22T02:15:06;99374.81;;;21.94;100.00
12209;BME280;6167;43.080;25.634;2022-07-22T02:17:33;99366.03;;;21.92;100.00
12209;BME280;6167;43.080;25.634;2022-07-22T02:20:01;99373.13;;;21.93;100.00
12209;BME280;6167;43.080;25.634;2022-07-22T02:22:28;99371.59;;;22.01;100.00
12209;BME280;6167;43.080;25.634;2022-07-22T02:24:55;99372.97;;;21.95;100.00
12209;BME280;6167;43.080;25.634;2022-07-22T02:27:22;99375.53;;;21.97;100.00
12209;BME280;6167;43.080;25.634;2022-07-22T02:29:50;99379.91;;;21.98;100.00
12209;BME280;6167;43.080;25.634;2022-07-22T02:32:17;99375.84;;;21.74;100.00
12209;BME280;6167;43.080;25.634;2022-07-22T02:34:44;99376.94;;;21.91;100.00
12209;BME280;6167;43.080;25.634;2022-07-22T02:37:11;99373.25;;;21.92;100.00
12209;BME280;6167;43.080;25.634;2022-07-22T02:39:38;99381.59;;;21.99;100.00
12209;BME280;6167;43.080;25.634;2022-07-22T02:42:05;99382.47;;;21.99;100.00
12209;BME280;6167;43.080;25.634;2022-07-22T02:44:35;99380.63;;;22.00;100.00
12209;BME280;6167;43.080;25.634;2022-07-22T02:47:07;99360.84;;;21.72;100.00
12209;BME280;6167;43.080;25.634;2022-07-22T02:49:34;99382.03;;;21.94;100.00
12209;BME280;6167;43.080;25.634;2022-07-22T02:52:01;99389.69;;;21.99;100.00
12209;BME280;6167;43.080;25.634;2022-07-22T02:54:28;99386.75;;;22.02;100.00
12209;BME280;6167;43.080;25.634;2022-07-22T02:56:55;99375.38;;;21.98;100.00
12209;BME280;6167;43.080;25.634;2022-07-22T02:59:22;99383.88;;;22.03;100.00
12209;BME280;6167;43.080;25.634;2022-07-22T03:01:48;99378.50;;;21.84;100.00
12209;BME280;6167;43.080;25.634;2022-07-22T03:04:17;99384.16;;;21.90;100.00
12209;BME280;6167;43.080;25.634;2022-07-22T03:06:44;99388.59;;;21.72;100.00
12209;BME280;6167;43.080;25.634;2022-07-22T03:09:10;99391.56;;;21.79;100.00
12209;BME280;6167;43.080;25.634;2022-07-22T03:11:37;99395.50;;;21.84;100.00
12209;BME280;6167;43.080;25.634;2022-07-22T03:14:04;99393.41;;;21.78;100.00
12209;BME280;6167;43.080;25.634;2022-07-22T03:16:31;99389.72;;;21.79;100.00
12209;BME280;6167;43.080;25.634;2022-07-22T03:18:58;99393.25;;;21.80;100.00
12209;BME280;6167;43.080;25.634;2022-07-22T03:21:27;99402.56;;;21.85;100.00
12209;BME280;6167;43.080;25.634;2022-07-22T03:23:54;99392.09;;;21.92;100.00
12209;BME280;6167;43.080;25.634;2022-07-22T03:26:21;99393.41;;;21.69;100.00
12209;BME280;6167;43.080;25.634;2022-07-22T03:28:48;99398.53;;;21.33;100.00
12209;BME280;6167;43.080;25.634;2022-07-22T03:31:15;99396.13;;;21.40;100.00
12209;BME280;6167;43.080;25.634;2022-07-22T03:33:42;99396.13;;;21.59;100.00
12209;BME280;6167;43.080;25.634;2022-07-22T03:36:10;99389.31;;;21.26;100.00
12209;BME280;6167;43.080;25.634;2022-07-22T03:38:39;99404.47;;;21.37;100.00
12209;BME280;6167;43.080;25.634;2022-07-22T03:41:05;99405.88;;;21.50;100.00
12209;BME280;6167;43.080;25.634;2022-07-22T03:43:32;99403.75;;;21.64;100.00
12209;BME280;6167;43.080;25.634;2022-07-22T03:45:59;99414.38;;;21.75;100.00
12209;BME280;6167;43.080;25.634;2022-07-22T03:48:26;99409.81;;;21.94;100.00
12209;BME280;6167;43.080;25.634;2022-07-22T03:50:53;99412.28;;;22.25;100.00
12209;BME280;6167;43.080;25.634;2022-07-22T03:53:20;99421.97;;;22.55;100.00
12209;BME280;6167;43.080;25.634;2022-07-22T03:55:49;99416.41;;;22.93;100.00
12209;BME280;6167;43.080;25.634;2022-07-22T03:58:16;99425.91;;;22.98;100.00
12209;BME280;6167;43.080;25.634;2022-07-22T04:00:44;99432.91;;;23.08;100.00
12209;BME280;6167;43.080;25.634;2022-07-22T04:03:11;99414.22;;;23.07;100.00
12209;BME280;6167;43.080;25.634;2022-07-22T04:05:38;99442.56;;;23.11;100.00
12209;BME280;6167;43.080;25.634;2022-07-22T04:08:05;99439.97;;;23.37;100.00
12209;BME280;6167;43.080;25.634;2022-07-22T04:10:32;99438.84;;;23.57;100.00
12209;BME280;6167;43.080;25.634;2022-07-22T04:13:00;99429.97;;;23.82;100.00
12209;BME280;6167;43.080;25.634;2022-07-22T04:15:27;99435.25;;;24.10;100.00
12209;BME280;6167;43.080;25.634;2022-07-22T04:17:55;99443.31;;;24.27;100.00
12209;BME280;6167;43.080;25.634;2022-07-22T04:20:22;99440.00;;;24.67;100.00
12209;BME280;6167;43.080;25.634;2022-07-22T04:22:49;99438.50;;;25.15;100.00
12209;BME280;6167;43.080;25.634;2022-07-22T04:25:16;99438.81;;;25.62;100.00
12209;BME280;6167;43.080;25.634;2022-07-22T04:27:43;99428.47;;;26.15;100.00
12209;BME280;6167;43.080;25.634;2022-07-22T04:30:11;99431.25;;;26.62;100.00
12209;BME280;6167;43.080;25.634;2022-07-22T04:32:38;99432.97;;;27.02;100.00
12209;BME280;6167;43.080;25.634;2022-07-22T04:35:05;99437.81;;;27.46;95.47
12209;BME280;6167;43.080;25.634;2022-07-22T04:37:33;99441.84;;;27.81;93.18
12209;BME280;6167;43.080;25.634;2022-07-22T04:40:00;99438.34;;;28.10;89.55
12209;BME280;6167;43.080;25.634;2022-07-22T04:42:27;99449.13;;;28.55;86.64
12209;BME280;6167;43.080;25.634;2022-07-22T04:44:54;99439.38;;;29.05;81.91
12209;BME280;6167;43.080;25.634;2022-07-22T04:47:22;99442.03;;;29.49;73.90
12209;BME280;6167;43.080;25.634;2022-07-22T04:49:49;99438.50;;;29.55;70.99
12209;BME280;6167;43.080;25.634;2022-07-22T04:52:17;99446.00;;;29.68;73.46
12209;BME280;6167;43.080;25.634;2022-07-22T04:54:44;99452.88;;;30.06;68.02
12209;BME280;6167;43.080;25.634;2022-07-22T04:57:11;99437.59;;;30.40;63.04
12209;BME280;6167;43.080;25.634;2022-07-22T04:59:40;99446.69;;;30.47;59.86
12209;BME280;6167;43.080;25.634;2022-07-22T05:02:07;99447.03;;;29.67;64.72
12209;BME280;6167;43.080;25.634;2022-07-22T05:04:35;99453.22;;;29.39;69.18
12209;BME280;6167;43.080;25.634;2022-07-22T05:07:02;99459.25;;;29.56;70.21
12209;BME280;6167;43.080;25.634;2022-07-22T05:09:29;99459.59;;;29.32;66.59
12209;BME280;6167;43.080;25.634;2022-07-22T05:11:56;99467.69;;;29.40;68.50
12209;BME280;6167;43.080;25.634;2022-07-22T05:14:23;99460.34;;;29.40;71.52
12209;BME280;6167;43.080;25.634;2022-07-22T05:16:50;99458.19;;;29.72;70.58
12209;BME280;6167;43.080;25.634;2022-07-22T05:19:17;99463.88;;;30.48;63.64
12209;BME280;6167;43.080;25.634;2022-07-22T05:21:46;99460.88;;;31.05;59.50
12209;BME280;6167;43.080;25.634;2022-07-22T05:24:13;99469.00;;;31.33;56.47
12209;BME280;6167;43.080;25.634;2022-07-22T05:26:40;99463.00;;;30.68;58.18
12209;BME280;6167;43.080;25.634;2022-07-22T05:29:07;99460.25;;;30.40;60.85
12209;BME280;6167;43.080;25.634;2022-07-22T05:31:34;99470.28;;;30.61;60.72
12209;BME280;6167;43.080;25.634;2022-07-22T05:34:01;99456.16;;;30.23;58.54
12209;BME280;6167;43.080;25.634;2022-07-22T05:36:28;99469.28;;;30.41;59.95
12209;BME280;6167;43.080;25.634;2022-07-22T05:38:57;99478.03;;;30.58;57.97
12209;BME280;6167;43.080;25.634;2022-07-22T05:41:24;99468.53;;;31.23;55.72
12209;BME280;6167;43.080;25.634;2022-07-22T05:43:51;99463.59;;;31.46;50.97
12209;BME280;6167;43.080;25.634;2022-07-22T05:46:18;99467.25;;;31.12;52.57
12209;BME280;6167;43.080;25.634;2022-07-22T05:48:46;99469.91;;;31.05;53.26
12209;BME280;6167;43.080;25.634;2022-07-22T05:51:13;99471.88;;;31.18;55.03
12209;BME280;6167;43.080;25.634;2022-07-22T05:53:41;99474.28;;;31.00;53.65
12209;BME280;6167;43.080;25.634;2022-07-22T05:56:10;99471.50;;;30.87;56.61
12209;BME280;6167;43.080;25.634;2022-07-22T05:58:37;99480.78;;;31.40;56.84
12209;BME280;6167;43.080;25.634;2022-07-22T06:01:04;99491.09;;;31.38;52.85
12209;BME280;6167;43.080;25.634;2022-07-22T06:03:32;99477.84;;;31.41;52.40
12209;BME280;6167;43.080;25.634;2022-07-22T06:05:58;99481.28;;;31.63;53.89
12209;BME280;6167;43.080;25.634;2022-07-22T06:08:26;99474.25;;;32.35;51.03
12209;BME280;6167;43.080;25.634;2022-07-22T06:10:54;99476.50;;;32.97;52.51
12209;BME280;6167;43.080;25.634;2022-07-22T06:13:22;99475.72;;;32.44;49.86
12209;BME280;6167;43.080;25.634;2022-07-22T06:15:49;99475.09;;;32.62;49.42
12209;BME280;6167;43.080;25.634;2022-07-22T06:18:17;99473.56;;;32.66;50.49
12209;BME280;6167;43.080;25.634;2022-07-22T06:20:45;99478.22;;;32.78;51.49
12209;BME280;6167;43.080;25.634;2022-07-22T06:23:12;99483.06;;;32.76;50.36
12209;BME280;6167;43.080;25.634;2022-07-22T06:25:39;99488.63;;;33.21;49.65
12209;BME280;6167;43.080;25.634;2022-07-22T06:28:06;99485.09;;;33.59;47.36
12209;BME280;6167;43.080;25.634;2022-07-22T06:30:38;99485.63;;;33.42;47.54
12209;BME280;6167;43.080;25.634;2022-07-22T06:33:05;99483.56;;;33.25;48.25
12209;BME280;6167;43.080;25.634;2022-07-22T06:35:32;99476.53;;;33.42;47.15
12209;BME280;6167;43.080;25.634;2022-07-22T06:37:59;99485.41;;;33.82;46.06
12209;BME280;6167;43.080;25.634;2022-07-22T06:40:26;99479.13;;;33.68;44.97
12209;BME280;6167;43.080;25.634;2022-07-22T06:42:53;99483.13;;;34.35;43.71
12209;BME280;6167;43.080;25.634;2022-07-22T06:45:20;99475.50;;;34.37;44.26
12209;BME280;6167;43.080;25.634;2022-07-22T06:47:48;99477.38;;;34.12;43.50
12209;BME280;6167;43.080;25.634;2022-07-22T06:50:15;99471.34;;;34.71;42.85
12209;BME280;6167;43.080;25.634;2022-07-22T06:52:42;99486.03;;;34.40;42.09
12209;BME280;6167;43.080;25.634;2022-07-22T06:55:09;99485.28;;;34.52;43.45
12209;BME280;6167;43.080;25.634;2022-07-22T06:57:37;99485.59;;;34.87;44.43
12209;BME280;6167;43.080;25.634;2022-07-22T07:00:06;99482.78;;;35.11;43.81
12209;BME280;6167;43.080;25.634;2022-07-22T07:02:34;99479.47;;;35.39;44.03
12209;BME280;6167;43.080;25.634;2022-07-22T07:05:02;99478.28;;;35.65;41.83
12209;BME280;6167;43.080;25.634;2022-07-22T07:07:29;99483.00;;;35.76;41.27
12209;BME280;6167;43.080;25.634;2022-07-22T07:09:56;99476.59;;;35.64;41.23
12209;BME280;6167;43.080;25.634;2022-07-22T07:12:23;99482.31;;;35.81;41.30
12209;BME280;6167;43.080;25.634;2022-07-22T07:14:50;99483.53;;;35.97;40.59
12209;BME280;6167;43.080;25.634;2022-07-22T07:17:17;99483.09;;;35.70;40.50
12209;BME280;6167;43.080;25.634;2022-07-22T07:19:44;99485.16;;;35.74;41.01
12209;BME280;6167;43.080;25.634;2022-07-22T07:22:13;99487.03;;;35.92;39.91
12209;BME280;6167;43.080;25.634;2022-07-22T07:24:40;99488.78;;;35.87;39.70
12209;BME280;6167;43.080;25.634;2022-07-22T07:27:07;99484.50;;;36.56;39.68
12209;BME280;6167;43.080;25.634;2022-07-22T07:29:34;99482.44;;;37.09;39.02
12209;BME280;6167;43.080;25.634;2022-07-22T07:32:01;99476.16;;;37.37;40.15
12209;BME280;6167;43.080;25.634;2022-07-22T07:34:28;99456.41;;;37.57;37.26
12209;BME280;6167;43.080;25.634;2022-07-22T07:36:55;99478.16;;;37.99;35.31
12209;BME280;6167;43.080;25.634;2022-07-22T07:39:24;99481.00;;;38.04;34.89
12209;BME280;6167;43.080;25.634;2022-07-22T07:41:51;99485.78;;;38.08;34.99
12209;BME280;6167;43.080;25.634;2022-07-22T07:44:20;99482.81;;;37.41;36.42
12209;BME280;6167;43.080;25.634;2022-07-22T07:46:47;99486.81;;;37.74;35.68
12209;BME280;6167;43.080;25.634;2022-07-22T07:49:14;99477.53;;;38.25;34.83
12209;BME280;6167;43.080;25.634;2022-07-22T07:51:41;99488.00;;;38.57;34.39
12209;BME280;6167;43.080;25.634;2022-07-22T07:54:07;99483.81;;;38.93;34.80
12209;BME280;6167;43.080;25.634;2022-07-22T07:56:36;99485.97;;;38.69;34.62
12209;BME280;6167;43.080;25.634;2022-07-22T07:59:03;99496.22;;;38.90;33.78
12209;BME280;6167;43.080;25.634;2022-07-22T08:01:30;99487.06;;;38.51;34.60
12209;BME280;6167;43.080;25.634;2022-07-22T08:03:57;99490.03;;;39.00;33.86
12209;BME280;6167;43.080;25.634;2022-07-22T08:06:24;99479.97;;;38.94;33.07
12209;BME280;6167;43.080;25.634;2022-07-22T08:08:50;99502.38;;;38.75;33.47
12209;BME280;6167;43.080;25.634;2022-07-22T08:11:17;99488.75;;;37.90;34.37
12209;BME280;6167;43.080;25.634;2022-07-22T08:13:46;99497.69;;;38.26;34.31
12209;BME280;6167;43.080;25.634;2022-07-22T08:16:13;99482.63;;;38.67;33.38
12209;BME280;6167;43.080;25.634;2022-07-22T08:18:39;99485.91;;;38.64;33.68
12209;BME280;6167;43.080;25.634;2022-07-22T08:21:07;99497.13;;;38.24;33.98
12209;BME280;6167;43.080;25.634;2022-07-22T08:23:34;99492.13;;;38.09;35.01
12209;BME280;6167;43.080;25.634;2022-07-22T08:26:01;99492.47;;;37.96;34.51
12209;BME280;6167;43.080;25.634;2022-07-22T08:28:28;99493.16;;;37.74;34.97
12209;BME280;6167;43.080;25.634;2022-07-22T08:30:57;99487.22;;;37.54;35.36
12209;BME280;6167;43.080;25.634;2022-07-22T08:33:24;99490.19;;;37.24;36.03
12209;BME280;6167;43.080;25.634;2022-07-22T08:35:50;99496.19;;;37.21;36.38
12209;BME280;6167;43.080;25.634;2022-07-22T08:38:17;99489.84;;;37.61;35.70
12209;BME280;6167;43.080;25.634;2022-07-22T08:40:44;99491.50;;;37.73;36.24
12209;BME280;6167;43.080;25.634;2022-07-22T08:43:11;99495.09;;;38.19;34.40
12209;BME280;6167;43.080;25.634;2022-07-22T08:45:39;99493.94;;;38.15;34.73
12209;BME280;6167;43.080;25.634;2022-07-22T08:48:08;99502.22;;;37.58;35.17
12209;BME280;6167;43.080;25.634;2022-07-22T08:50:35;99504.16;;;37.46;35.29
12209;BME280;6167;43.080;25.634;2022-07-22T08:53:02;99508.22;;;36.57;37.26
12209;BME280;6167;43.080;25.634;2022-07-22T08:55:30;99509.03;;;36.69;36.36
12209;BME280;6167;43.080;25.634;2022-07-22T08:57:57;99502.81;;;36.97;35.83
12209;BME280;6167;43.080;25.634;2022-07-22T09:00:24;99512.38;;;36.71;35.31
12209;BME280;6167;43.080;25.634;2022-07-22T09:02:51;99505.22;;;36.81;36.38
12209;BME280;6167;43.080;25.634;2022-07-22T09:05:19;99515.38;;;36.46;35.85
12209;BME280;6167;43.080;25.634;2022-07-22T09:07:46;99522.03;;;36.27;36.41
12209;BME280;6167;43.080;25.634;2022-07-22T09:10:15;99519.97;;;36.22;35.81
12209;BME280;6167;43.080;25.634;2022-07-22T09:12:53;99511.69;;;36.99;34.86
12209;BME280;6167;43.080;25.634;2022-07-22T09:15:25;99512.44;;;37.46;33.06
12209;BME280;6167;43.080;25.634;2022-07-22T09:17:53;99512.72;;;37.33;32.93
12209;BME280;6167;43.080;25.634;2022-07-22T09:20:22;99499.78;;;37.73;32.77
12209;BME280;6167;43.080;25.634;2022-07-22T09:22:51;99510.09;;;37.66;33.33
12209;BME280;6167;43.080;25.634;2022-07-22T09:25:29;99502.53;;;37.22;34.03
12209;BME280;6167;43.080;25.634;2022-07-22T09:28:09;99513.00;;;37.20;34.47
12209;BME280;6167;43.080;25.634;2022-07-22T09:30:38;99509.63;;;37.69;34.05
12209;BME280;6167;43.080;25.634;2022-07-22T09:33:07;99497.13;;;37.78;33.39
12209;BME280;6167;43.080;25.634;2022-07-22T09:35:36;99504.19;;;38.03;32.92
12209;BME280;6167;43.080;25.634;2022-07-22T09:38:04;99509.91;;;38.30;33.10
12209;BME280;6167;43.080;25.634;2022-07-22T09:40:33;99508.94;;;38.07;32.52
12209;BME280;6167;43.080;25.634;2022-07-22T09:43:04;99502.63;;;38.40;32.18
12209;BME280;6167;43.080;25.634;2022-07-22T09:45:32;99496.72;;;39.04;32.24
12209;BME280;6167;43.080;25.634;2022-07-22T09:48:02;99507.16;;;39.62;30.65
12209;BME280;6167;43.080;25.634;2022-07-22T09:50:31;99496.47;;;39.05;29.22
12209;BME280;6167;43.080;25.634;2022-07-22T09:53:00;99503.53;;;38.46;29.71
12209;BME280;6167;43.080;25.634;2022-07-22T09:55:29;99514.00;;;38.10;30.12
12209;BME280;6167;43.080;25.634;2022-07-22T09:57:57;99502.19;;;37.70;30.33
12209;BME280;6167;43.080;25.634;2022-07-22T10:00:26;99496.44;;;37.88;29.71
12209;BME280;6167;43.080;25.634;2022-07-22T10:02:54;99501.56;;;37.96;29.73
12209;BME280;6167;43.080;25.634;2022-07-22T10:05:22;99492.59;;;37.21;30.24
12209;BME280;6167;43.080;25.634;2022-07-22T10:07:51;99495.84;;;37.58;30.06
12209;BME280;6167;43.080;25.634;2022-07-22T10:10:20;99497.97;;;37.96;29.20
12209;BME280;6167;43.080;25.634;2022-07-22T10:12:48;99491.41;;;37.16;31.48
12209;BME280;6167;43.080;25.634;2022-07-22T10:15:16;99499.53;;;35.58;31.07
12209;BME280;6167;43.080;25.634;2022-07-22T10:17:46;99499.81;;;36.63;30.94
12209;BME280;6167;43.080;25.634;2022-07-22T10:20:17;99496.31;;;37.03;29.77
12209;BME280;6167;43.080;25.634;2022-07-22T10:22:48;99497.78;;;37.86;28.01
12209;BME280;6167;43.080;25.634;2022-07-22T10:25:17;99492.00;;;38.15;28.52
12209;BME280;6167;43.080;25.634;2022-07-22T10:27:47;99503.28;;;38.31;27.87
12209;BME280;6167;43.080;25.634;2022-07-22T10:30:17;99494.19;;;38.64;27.63
12209;BME280;6167;43.080;25.634;2022-07-22T10:32:45;99505.16;;;38.97;27.55
12209;BME280;6167;43.080;25.634;2022-07-22T10:35:24;99496.84;;;38.75;27.36
12209;BME280;6167;43.080;25.634;2022-07-22T10:38:03;99498.28;;;39.38;27.06
12209;BME280;6167;43.080;25.634;2022-07-22T10:40:31;99507.28;;;39.50;26.76
12209;BME280;6167;43.080;25.634;2022-07-22T10:43:12;99491.22;;;39.47;27.07
12209;BME280;6167;43.080;25.634;2022-07-22T10:45:41;99490.13;;;39.27;26.40
12209;BME280;6167;43.080;25.634;2022-07-22T10:48:11;99490.50;;;39.13;27.20
12209;BME280;6167;43.080;25.634;2022-07-22T10:50:55;99483.88;;;39.36;26.07
12209;BME280;6167;43.080;25.634;2022-07-22T10:53:49;99493.25;;;39.35;26.66
12209;BME280;6167;43.080;25.634;2022-07-22T10:56:23;99486.97;;;38.79;27.76
12209;BME280;6167;43.080;25.634;2022-07-22T10:58:58;99484.16;;;38.96;27.51
12209;BME280;6167;43.080;25.634;2022-07-22T11:01:29;99492.56;;;39.01;27.12
12209;BME280;6167;43.080;25.634;2022-07-22T11:04:07;99480.06;;;39.42;26.86
12209;BME280;6167;43.080;25.634;2022-07-22T11:06:34;99485.38;;;39.44;26.54
12209;BME280;6167;43.080;25.634;2022-07-22T11:09:04;99488.38;;;39.42;26.34
12209;BME280;6167;43.080;25.634;2022-07-22T11:11:38;99485.44;;;39.49;26.70
12209;BME280;6167;43.080;25.634;2022-07-22T11:14:20;99491.19;;;39.69;25.70
12209;BME280;6167;43.080;25.634;2022-07-22T11:16:48;99485.19;;;39.77;25.40
12209;BME280;6167;43.080;25.634;2022-07-22T11:19:20;99480.47;;;39.51;25.68
12209;BME280;6167;43.080;25.634;2022-07-22T11:21:50;99468.84;;;39.05;25.62
12209;BME280;6167;43.080;25.634;2022-07-22T11:24:19;99466.28;;;38.82;25.46
12209;BME280;6167;43.080;25.634;2022-07-22T11:26:47;99460.88;;;38.92;25.52
12209;BME280;6167;43.080;25.634;2022-07-22T11:29:22;99463.03;;;38.85;25.12
12209;BME280;6167;43.080;25.634;2022-07-22T11:31:50;99462.03;;;38.96;25.15
12209;BME280;6167;43.080;25.634;2022-07-22T11:34:17;99449.09;;;39.18;25.28
12209;BME280;6167;43.080;25.634;2022-07-22T11:36:46;99459.66;;;39.22;25.19
12209;BME280;6167;43.080;25.634;2022-07-22T11:39:16;99461.94;;;38.86;23.71
12209;BME280;6167;43.080;25.634;2022-07-22T11:41:44;99460.13;;;38.25;24.61
12209;BME280;6167;43.080;25.634;2022-07-22T11:44:11;99465.06;;;38.39;25.11
12209;BME280;6167;43.080;25.634;2022-07-22T11:46:42;99470.81;;;38.55;24.19
12209;BME280;6167;43.080;25.634;2022-07-22T11:49:09;99465.75;;;38.63;24.35
12209;BME280;6167;43.080;25.634;2022-07-22T11:51:40;99464.25;;;38.22;24.37
12209;BME280;6167;43.080;25.634;2022-07-22T11:54:07;99450.28;;;38.84;24.13
12209;BME280;6167;43.080;25.634;2022-07-22T11:56:34;99461.69;;;38.71;24.86
12209;BME280;6167;43.080;25.634;2022-07-22T11:59:01;99462.56;;;38.93;24.85
12209;BME280;6167;43.080;25.634;2022-07-22T12:01:32;99458.66;;;39.33;23.32
12209;BME280;6167;43.080;25.634;2022-07-22T12:04:02;99463.00;;;39.24;23.71
12209;BME280;6167;43.080;25.634;2022-07-22T12:06:33;99462.50;;;38.16;23.59
12209;BME280;6167;43.080;25.634;2022-07-22T12:09:05;99466.06;;;38.00;23.77
12209;BME280;6167;43.080;25.634;2022-07-22T12:11:34;99458.72;;;38.39;23.80
12209;BME280;6167;43.080;25.634;2022-07-22T12:14:07;99447.56;;;38.67;23.18
12209;BME280;6167;43.080;25.634;2022-07-22T12:16:35;99437.59;;;38.66;23.54
12209;BME280;6167;43.080;25.634;2022-07-22T12:19:06;99445.78;;;38.78;24.20
12209;BME280;6167;43.080;25.634;2022-07-22T12:21:34;99450.81;;;38.47;23.33
12209;BME280;6167;43.080;25.634;2022-07-22T12:24:03;99447.13;;;37.75;23.52
12209;BME280;6167;43.080;25.634;2022-07-22T12:26:41;99443.75;;;38.18;22.79
12209;BME280;6167;43.080;25.634;2022-07-22T12:29:16;99438.38;;;38.62;22.97
12209;BME280;6167;43.080;25.634;2022-07-22T12:31:44;99446.50;;;38.35;23.22
12209;BME280;6167;43.080;25.634;2022-07-22T12:34:13;99444.22;;;38.48;22.89
12209;BME280;6167;43.080;25.634;2022-07-22T12:36:43;99436.72;;;38.44;23.22
12209;BME280;6167;43.080;25.634;2022-07-22T12:39:12;99430.91;;;37.78;23.05
12209;BME280;6167;43.080;25.634;2022-07-22T12:41:46;99438.13;;;37.96;23.25
12209;BME280;6167;43.080;25.634;2022-07-22T12:44:18;99436.53;;;38.34;23.13
12209;BME280;6167;43.080;25.634;2022-07-22T12:46:46;99438.69;;;38.48;22.16
12209;BME280;6167;43.080;25.634;2022-07-22T12:49:15;99426.28;;;38.12;22.73
12209;BME280;6167;43.080;25.634;2022-07-22T12:54:24;99422.56;;;38.07;23.03
12209;BME280;6167;43.080;25.634;2022-07-22T12:56:51;99428.03;;;38.19;23.85
12209;BME280;6167;43.080;25.634;2022-07-22T12:59:18;99425.91;;;38.42;23.45
12209;BME280;6167;43.080;25.634;2022-07-22T13:01:45;99427.75;;;38.37;23.41
12209;BME280;6167;43.080;25.634;2022-07-22T13:04:15;99427.66;;;38.65;22.56
12209;BME280;6167;43.080;25.634;2022-07-22T13:06:42;99428.00;;;38.35;22.64